Time;durP1;ratioP1;P1;durP2;ratioP2;P2;SDS_P1;SDS_P2;PMS_P1;PMS_P2;Temp;Humidity;BMP_temperature;BMP_pressure;BME280_temperature;BME280_humidity;BME280_pressure;Samples;Min_cycle;Max_cycle;Signal;HPM_P1;HPM_P2
2021/12/09 00:01:14;;;;;;;40.95;20.73;;;;;;;;;;5048403;28;20029;-61
2021/12/09 00:03:40;;;;;;;32.90;14.63;;;;;;;;;;5050437;28;20353;-64
2021/12/09 00:06:08;;;;;;;52.45;20.08;;;;;;;;;;5047424;28;20041;-53
2021/12/09 00:08:36;;;;;;;47.25;20.13;;;;;;;;;;5041261;28;20044;-63
2021/12/09 00:11:04;;;;;;;31.27;14.38;;;;;;;;;;5048062;28;20056;-61
2021/12/09 00:13:30;;;;;;;38.53;15.38;;;;;;;;;;5056725;28;20033;-65
2021/12/09 00:15:57;;;;;;;31.35;16.20;;;;;;;;;;5061968;28;20037;-62
2021/12/09 00:18:22;;;;;;;40.08;17.23;;;;;;;;;;5053497;28;20108;-62
2021/12/09 00:20:48;;;;;;;19.80;11.55;;;;;;;;;;5053282;28;20036;-63
2021/12/09 00:23:14;;;;;;;35.33;16.23;;;;;;;;;;5065872;28;20036;-60
2021/12/09 00:25:40;;;;;;;38.95;22.35;;;;;;;;;;5065592;28;20021;-64
2021/12/09 00:28:06;;;;;;;47.67;19.38;;;;;;;;;;5065591;28;20031;-63
2021/12/09 00:30:32;;;;;;;37.10;18.77;;;;;;;;;;5053201;28;20033;-62
2021/12/09 00:33:00;;;;;;;24.15;11.60;;;;;;;;;;5065030;28;20112;-58
2021/12/09 00:35:31;;;;;;;34.20;14.55;;;;;;;;;;5050415;28;20033;-61
2021/12/09 00:38:03;;;;;;;51.03;18.67;;;;;;;;;;5061105;28;20040;-62
2021/12/09 00:40:29;;;;;;;28.17;13.40;;;;;;;;;;5045995;28;20052;-54
2021/12/09 00:42:54;;;;;;;27.65;17.48;;;;;;;;;;5050121;28;20034;-56
2021/12/09 00:45:21;;;;;;;53.67;20.67;;;;;;;;;;5060505;28;20104;-53
2021/12/09 00:47:47;;;;;;;45.03;17.50;;;;;;;;;;5058989;28;20033;-58
2021/12/09 00:50:13;;;;;;;22.50;11.35;;;;;;;;;;5063992;28;20036;-60
2021/12/09 00:52:39;;;;;;;26.35;13.73;;;;;;;;;;5068349;28;20017;-64
2021/12/09 00:55:07;;;;;;;37.72;15.00;;;;;;;;;;5057932;28;20124;-59
2021/12/09 00:57:33;;;;;;;30.98;15.93;;;;;;;;;;5052610;28;20048;-65
2021/12/09 00:59:59;;;;;;;33.00;15.48;;;;;;;;;;5051901;28;20025;-62
2021/12/09 01:02:25;;;;;;;34.22;13.20;;;;;;;;;;5051432;28;20480;-60
2021/12/09 01:04:51;;;;;;;39.70;16.88;;;;;;;;;;5046117;28;20039;-63
2021/12/09 01:07:17;;;;;;;41.95;15.50;;;;;;;;;;5052552;28;20025;-57
2021/12/09 01:09:42;;;;;;;47.05;17.92;;;;;;;;;;5052352;28;20495;-61
2021/12/09 01:12:09;;;;;;;37.78;16.40;;;;;;;;;;5046011;28;20082;-63
2021/12/09 01:14:37;;;;;;;36.22;15.20;;;;;;;;;;5052361;28;20033;-63
2021/12/09 01:17:05;;;;;;;33.20;14.40;;;;;;;;;;5052264;28;20161;-59
2021/12/09 01:19:30;;;;;;;34.53;16.55;;;;;;;;;;5052244;28;20029;-55
2021/12/09 01:21:56;;;;;;;63.45;20.80;;;;;;;;;;5052513;28;20033;-57
2021/12/09 01:24:21;;;;;;;23.05;10.88;;;;;;;;;;5052376;28;20033;-56
2021/12/09 01:26:49;;;;;;;25.90;12.82;;;;;;;;;;5052349;28;20029;-63
2021/12/09 01:29:19;;;;;;;52.65;20.00;;;;;;;;;;5052098;28;20029;-58
2021/12/09 01:31:53;;;;;;;43.63;18.17;;;;;;;;;;5052716;28;20112;-56
2021/12/09 01:34:20;;;;;;;48.63;18.50;;;;;;;;;;5046052;28;20031;-64
2021/12/09 01:36:48;;;;;;;25.13;14.88;;;;;;;;;;5049964;28;20064;-56
2021/12/09 01:39:14;;;;;;;54.28;19.05;;;;;;;;;;5051958;28;20028;-57
2021/12/09 01:41:40;;;;;;;58.92;22.48;;;;;;;;;;5044122;28;20030;-57
2021/12/09 01:44:06;;;;;;;53.20;19.27;;;;;;;;;;5045502;28;20025;-59
2021/12/09 01:46:31;;;;;;;51.58;19.88;;;;;;;;;;5052318;28;20079;-53
2021/12/09 01:48:57;;;;;;;46.38;17.73;;;;;;;;;;5056031;28;20446;-57
2021/12/09 01:51:22;;;;;;;33.47;15.98;;;;;;;;;;5056035;28;20501;-53
2021/12/09 01:53:48;;;;;;;40.28;16.70;;;;;;;;;;5056069;28;20391;-57
2021/12/09 01:56:21;;;;;;;49.65;20.15;;;;;;;;;;5051956;28;20025;-59
2021/12/09 01:58:52;;;;;;;38.90;15.90;;;;;;;;;;5056019;28;20115;-56
2021/12/09 02:01:18;;;;;;;54.05;22.33;;;;;;;;;;5059143;28;20056;-59
2021/12/09 02:03:44;;;;;;;23.05;12.57;;;;;;;;;;5051622;28;20125;-55
2021/12/09 02:06:11;;;;;;;51.35;22.00;;;;;;;;;;5051927;28;20021;-58
2021/12/09 02:08:37;;;;;;;39.72;14.48;;;;;;;;;;5059973;28;20043;-58
2021/12/09 02:11:03;;;;;;;63.22;22.60;;;;;;;;;;5049942;28;20029;-57
2021/12/09 02:13:29;;;;;;;48.28;18.50;;;;;;;;;;5043656;28;20036;-57
2021/12/09 02:15:56;;;;;;;52.60;20.20;;;;;;;;;;5056053;28;20391;-57
2021/12/09 02:18:23;;;;;;;46.15;19.67;;;;;;;;;;5071617;28;20109;-60
2021/12/09 02:21:17;;;;;;;36.22;17.30;;;;;;;;;;5039144;28;20036;-55
2021/12/09 02:23:49;;;;;;;48.38;17.30;;;;;;;;;;5048214;28;20049;-58
2021/12/09 02:26:20;;;;;;;42.17;16.25;;;;;;;;;;5066702;28;20036;-58
2021/12/09 02:28:47;;;;;;;48.85;21.58;;;;;;;;;;5063061;28;20037;-54
2021/12/09 02:31:12;;;;;;;39.22;16.63;;;;;;;;;;5062740;28;20041;-56
2021/12/09 02:33:38;;;;;;;47.47;18.85;;;;;;;;;;5060927;28;20054;-53
2021/12/09 02:36:05;;;;;;;49.15;19.55;;;;;;;;;;5047243;28;20563;-58
2021/12/09 02:38:30;;;;;;;42.60;15.93;;;;;;;;;;5055525;28;20071;-54
2021/12/09 02:40:57;;;;;;;37.22;15.40;;;;;;;;;;5042390;28;20076;-52
2021/12/09 02:43:28;;;;;;;50.75;19.17;;;;;;;;;;5051510;28;20461;-57
2021/12/09 02:45:55;;;;;;;46.35;20.23;;;;;;;;;;5055093;28;20118;-55
2021/12/09 02:48:22;;;;;;;44.55;18.33;;;;;;;;;;5054962;28;20108;-58
2021/12/09 02:50:49;;;;;;;34.60;14.75;;;;;;;;;;5053777;28;20110;-57
2021/12/09 02:53:15;;;;;;;42.80;17.48;;;;;;;;;;5054895;28;20033;-56
2021/12/09 02:55:41;;;;;;;45.88;19.27;;;;;;;;;;5054435;28;20025;-57
2021/12/09 02:58:07;;;;;;;37.10;12.75;;;;;;;;;;5054913;28;20574;-57
2021/12/09 03:00:33;;;;;;;35.13;15.38;;;;;;;;;;5054904;28;20051;-61
2021/12/09 03:02:59;;;;;;;30.42;13.60;;;;;;;;;;5054723;28;20021;-54
2021/12/09 03:05:27;;;;;;;23.48;9.90;;;;;;;;;;5045829;28;20045;-56
2021/12/09 03:07:53;;;;;;;32.88;15.27;;;;;;;;;;5049537;28;20033;-59
2021/12/09 03:10:24;;;;;;;43.92;18.45;;;;;;;;;;5054374;28;20041;-59
2021/12/09 03:12:58;;;;;;;46.08;18.85;;;;;;;;;;5049455;28;20026;-56
2021/12/09 03:15:24;;;;;;;20.25;11.45;;;;;;;;;;5054857;28;20036;-58
2021/12/09 03:17:50;;;;;;;31.30;13.75;;;;;;;;;;5062958;28;20024;-55
2021/12/09 03:20:19;;;;;;;38.85;18.08;;;;;;;;;;5062545;28;20029;-62
2021/12/09 03:22:46;;;;;;;47.45;19.13;;;;;;;;;;5062229;28;20432;-64
2021/12/09 03:25:15;;;;;;;39.53;14.93;;;;;;;;;;5062422;28;20028;-59
2021/12/09 03:27:41;;;;;;;30.77;11.98;;;;;;;;;;5054384;28;20059;-54
2021/12/09 03:30:10;;;;;;;32.20;12.75;;;;;;;;;;5062267;28;20083;-55
2021/12/09 03:32:35;;;;;;;47.15;18.52;;;;;;;;;;5054297;28;20044;-57
2021/12/09 03:35:01;;;;;;;23.85;12.13;;;;;;;;;;5054287;28;20025;-58
2021/12/09 03:37:27;;;;;;;32.72;16.05;;;;;;;;;;5047806;28;20025;-57
2021/12/09 03:39:54;;;;;;;29.83;15.32;;;;;;;;;;5045991;28;20130;-59
2021/12/09 03:42:23;;;;;;;43.80;17.33;;;;;;;;;;5049048;28;20026;-65
2021/12/09 03:44:49;;;;;;;42.05;18.05;;;;;;;;;;5048703;28;20114;-64
2021/12/09 03:47:18;;;;;;;40.75;15.30;;;;;;;;;;5052812;28;20545;-64
2021/12/09 03:49:43;;;;;;;31.38;16.42;;;;;;;;;;5057504;28;20040;-62
2021/12/09 03:52:11;;;;;;;38.22;15.48;;;;;;;;;;5056132;28;20426;-61
2021/12/09 03:54:36;;;;;;;42.50;16.30;;;;;;;;;;5057517;28;20025;-63
2021/12/09 03:57:04;;;;;;;32.00;13.45;;;;;;;;;;5053823;28;20380;-61
2021/12/09 03:59:29;;;;;;;43.33;18.10;;;;;;;;;;5053535;28;20025;-60
2021/12/09 04:01:55;;;;;;;44.35;18.88;;;;;;;;;;5053787;28;20033;-58
2021/12/09 04:04:21;;;;;;;45.00;18.08;;;;;;;;;;5068640;28;20111;-56
2021/12/09 04:06:47;;;;;;;47.85;17.90;;;;;;;;;;5050540;28;20399;-60
2021/12/09 04:09:15;;;;;;;34.70;16.73;;;;;;;;;;5055454;28;20025;-57
2021/12/09 04:11:40;;;;;;;31.65;13.40;;;;;;;;;;5053794;28;20032;-56
2021/12/09 04:14:07;;;;;;;33.70;15.88;;;;;;;;;;5053034;28;20474;-60
2021/12/09 04:16:33;;;;;;;22.67;9.93;;;;;;;;;;5048406;28;20032;-52
2021/12/09 04:18:59;;;;;;;46.92;16.55;;;;;;;;;;5065306;28;20368;-60
2021/12/09 04:21:25;;;;;;;39.50;15.50;;;;;;;;;;5061180;28;20044;-58
2021/12/09 04:23:50;;;;;;;28.30;15.90;;;;;;;;;;5064187;28;20087;-59
2021/12/09 04:26:16;;;;;;;45.67;19.02;;;;;;;;;;5065922;28;20416;-58
2021/12/09 04:28:43;;;;;;;45.42;16.58;;;;;;;;;;5065414;28;20135;-57
2021/12/09 04:31:09;;;;;;;56.75;21.25;;;;;;;;;;5068439;28;20490;-61
2021/12/09 04:33:35;;;;;;;27.70;12.57;;;;;;;;;;5063666;28;20032;-61
2021/12/09 04:36:01;;;;;;;49.90;23.58;;;;;;;;;;5060075;28;20103;-62
2021/12/09 04:38:27;;;;;;;44.25;16.15;;;;;;;;;;5048865;28;20092;-60
2021/12/09 04:40:53;;;;;;;33.15;17.63;;;;;;;;;;5056829;28;20068;-59
2021/12/09 04:43:18;;;;;;;52.40;18.95;;;;;;;;;;5064461;28;20056;-59
2021/12/09 04:45:44;;;;;;;55.80;20.48;;;;;;;;;;5058189;28;20411;-58
2021/12/09 04:48:10;;;;;;;26.65;14.35;;;;;;;;;;5048639;28;20029;-58
2021/12/09 04:50:38;;;;;;;40.17;20.92;;;;;;;;;;5052579;28;20472;-59
2021/12/09 04:53:05;;;;;;;30.95;14.38;;;;;;;;;;5052524;28;20112;-59
2021/12/09 04:55:30;;;;;;;37.60;14.40;;;;;;;;;;5057371;28;20398;-54
2021/12/09 04:57:56;;;;;;;42.58;16.13;;;;;;;;;;5060189;28;20078;-58
2021/12/09 05:00:24;;;;;;;39.83;15.02;;;;;;;;;;5056436;28;20127;-59
2021/12/09 05:03:06;;;;;;;40.25;16.13;;;;;;;;;;5052631;28;20033;-56
2021/12/09 05:05:36;;;;;;;48.40;18.50;;;;;;;;;;5051605;28;20048;-55
2021/12/09 05:08:05;;;;;;;46.20;19.63;;;;;;;;;;5040298;28;20032;-59
2021/12/09 05:10:36;;;;;;;49.22;20.33;;;;;;;;;;5052295;28;20044;-62
2021/12/09 05:13:04;;;;;;;57.88;19.15;;;;;;;;;;5052404;28;20116;-65
2021/12/09 05:15:30;;;;;;;36.25;14.75;;;;;;;;;;5068449;28;20440;-64
2021/12/09 05:17:55;;;;;;;47.58;17.67;;;;;;;;;;5050106;28;20044;-63
2021/12/09 05:20:22;;;;;;;40.25;18.02;;;;;;;;;;5053728;28;20041;-60
2021/12/09 05:22:48;;;;;;;29.73;15.73;;;;;;;;;;5065245;28;20484;-65
2021/12/09 05:25:13;;;;;;;56.50;21.20;;;;;;;;;;5067959;28;20025;-63
2021/12/09 05:27:39;;;;;;;44.20;17.02;;;;;;;;;;5067547;28;20025;-58
2021/12/09 05:30:11;;;;;;;42.55;19.33;;;;;;;;;;5055665;28;20383;-61
2021/12/09 05:32:37;;;;;;;58.97;22.13;;;;;;;;;;5063928;28;20104;-59
2021/12/09 05:35:03;;;;;;;27.17;12.80;;;;;;;;;;5051981;28;20109;-56
2021/12/09 05:37:29;;;;;;;43.75;16.45;;;;;;;;;;5052321;28;20480;-58
2021/12/09 05:39:56;;;;;;;32.08;13.85;;;;;;;;;;5053349;28;20052;-59
2021/12/09 05:42:24;;;;;;;37.15;18.63;;;;;;;;;;5067637;28;20028;-54
2021/12/09 05:44:50;;;;;;;76.50;25.73;;;;;;;;;;5066265;28;20116;-59
2021/12/09 05:47:16;;;;;;;42.17;15.85;;;;;;;;;;5070314;28;20487;-60
2021/12/09 05:49:45;;;;;;;54.95;21.88;;;;;;;;;;5059964;28;20056;-57
2021/12/09 05:52:12;;;;;;;56.80;19.77;;;;;;;;;;5048030;28;20028;-54
2021/12/09 05:54:38;;;;;;;39.38;16.25;;;;;;;;;;5055881;28;20116;-63
2021/12/09 05:57:04;;;;;;;30.00;15.35;;;;;;;;;;5055776;28;20111;-58
2021/12/09 05:59:30;;;;;;;35.78;13.88;;;;;;;;;;5055819;28;20104;-59
2021/12/09 06:01:57;;;;;;;52.65;18.30;;;;;;;;;;5055980;28;20117;-58
2021/12/09 06:04:22;;;;;;;54.88;22.00;;;;;;;;;;5067982;28;20032;-59
2021/12/09 06:06:48;;;;;;;35.35;15.82;;;;;;;;;;5054614;28;20033;-58
2021/12/09 06:09:14;;;;;;;28.17;12.82;;;;;;;;;;5053677;28;20098;-62
2021/12/09 06:11:43;;;;;;;51.10;20.95;;;;;;;;;;5063345;28;20488;-63
2021/12/09 06:14:09;;;;;;;37.75;13.32;;;;;;;;;;5067153;28;20483;-55
2021/12/09 06:16:35;;;;;;;23.67;13.23;;;;;;;;;;5066954;28;20058;-62
2021/12/09 06:19:01;;;;;;;19.13;11.30;;;;;;;;;;5061377;28;20029;-62
2021/12/09 06:21:28;;;;;;;80.55;25.73;;;;;;;;;;5054433;28;20506;-59
2021/12/09 06:23:59;;;;;;;69.70;22.55;;;;;;;;;;5047088;28;20041;-62
2021/12/09 06:26:25;;;;;;;31.27;15.95;;;;;;;;;;5047336;28;20111;-61
2021/12/09 06:28:51;;;;;;;53.00;20.50;;;;;;;;;;5063470;28;20475;-64
2021/12/09 06:31:17;;;;;;;47.10;19.15;;;;;;;;;;5063383;28;20119;-64
2021/12/09 06:33:42;;;;;;;64.72;22.05;;;;;;;;;;5058996;28;20052;-66
2021/12/09 06:36:08;;;;;;;67.70;27.15;;;;;;;;;;5059301;28;20061;-64
2021/12/09 06:38:34;;;;;;;55.42;18.48;;;;;;;;;;5055233;28;20028;-65
2021/12/09 06:41:00;;;;;;;52.50;20.48;;;;;;;;;;5055658;28;20515;-64
2021/12/09 06:43:26;;;;;;;55.50;19.83;;;;;;;;;;5054963;28;20029;-57
2021/12/09 06:45:54;;;;;;;58.95;21.00;;;;;;;;;;5056375;28;20111;-55
2021/12/09 06:48:21;;;;;;;49.38;17.40;;;;;;;;;;5055736;28;20095;-61
2021/12/09 06:50:47;;;;;;;58.90;19.48;;;;;;;;;;5046980;28;20033;-58
2021/12/09 06:53:14;;;;;;;40.03;16.52;;;;;;;;;;5043271;28;20506;-54
2021/12/09 06:55:41;;;;;;;48.45;16.13;;;;;;;;;;5054864;28;20037;-57
2021/12/09 06:58:07;;;;;;;73.32;23.17;;;;;;;;;;5054075;28;20091;-56
2021/12/09 07:00:33;;;;;;;67.05;21.42;;;;;;;;;;5054712;28;20037;-62
2021/12/09 07:02:59;;;;;;;72.28;21.50;;;;;;;;;;5054471;28;20029;-62
2021/12/09 07:05:29;;;;;;;33.58;16.55;;;;;;;;;;5054443;28;20052;-59
2021/12/09 07:07:55;;;;;;;43.63;17.30;;;;;;;;;;5054574;28;20080;-59
2021/12/09 07:10:22;;;;;;;45.20;18.73;;;;;;;;;;5051682;28;20040;-59
2021/12/09 07:12:48;;;;;;;36.95;15.07;;;;;;;;;;5052050;28;20029;-53
2021/12/09 07:15:15;;;;;;;28.13;14.98;;;;;;;;;;5061851;28;20029;-52
2021/12/09 07:17:40;;;;;;;38.03;14.60;;;;;;;;;;5063399;28;20036;-58
2021/12/09 07:20:10;;;;;;;52.72;19.48;;;;;;;;;;5056227;28;20372;-55
2021/12/09 07:22:36;;;;;;;41.35;17.73;;;;;;;;;;5047019;28;20108;-59
2021/12/09 07:25:03;;;;;;;44.88;15.10;;;;;;;;;;5054460;28;20025;-51
2021/12/09 07:27:29;;;;;;;53.13;19.42;;;;;;;;;;5054187;28;20025;-58
2021/12/09 07:29:54;;;;;;;49.55;17.45;;;;;;;;;;5054241;28;20083;-57
2021/12/09 07:32:20;;;;;;;42.10;19.48;;;;;;;;;;5066202;28;20039;-57
2021/12/09 07:34:46;;;;;;;35.25;14.25;;;;;;;;;;5055021;28;20092;-60
2021/12/09 07:37:11;;;;;;;76.80;25.17;;;;;;;;;;5069936;28;20395;-61
2021/12/09 07:39:37;;;;;;;75.82;25.48;;;;;;;;;;5058883;28;20033;-58
2021/12/09 07:42:03;;;;;;;79.45;24.02;;;;;;;;;;5046898;28;20073;-57
2021/12/09 07:44:30;;;;;;;79.28;24.25;;;;;;;;;;5053861;28;20037;-56
2021/12/09 07:46:57;;;;;;;79.15;26.02;;;;;;;;;;5053711;28;20025;-58
2021/12/09 07:49:24;;;;;;;38.78;17.40;;;;;;;;;;5053767;28;20515;-57
2021/12/09 07:51:50;;;;;;;37.13;16.38;;;;;;;;;;5053644;28;20119;-58
2021/12/09 07:54:17;;;;;;;54.50;17.27;;;;;;;;;;5049038;28;20021;-54
2021/12/09 07:56:44;;;;;;;34.95;15.50;;;;;;;;;;5046652;28;20025;-58
2021/12/09 07:59:11;;;;;;;81.85;25.33;;;;;;;;;;5054318;28;20111;-53
2021/12/09 08:01:38;;;;;;;51.45;17.13;;;;;;;;;;5039616;28;20471;-63
2021/12/09 08:04:03;;;;;;;62.00;25.30;;;;;;;;;;5047838;28;20040;-64
2021/12/09 08:06:29;;;;;;;64.97;22.65;;;;;;;;;;5052668;28;20025;-62
2021/12/09 08:08:54;;;;;;;72.47;22.25;;;;;;;;;;5048851;28;20040;-62
2021/12/09 08:11:21;;;;;;;44.75;14.82;;;;;;;;;;5048255;28;20471;-60
2021/12/09 08:13:46;;;;;;;64.22;21.15;;;;;;;;;;5052673;28;20029;-54
2021/12/09 08:16:12;;;;;;;84.18;24.25;;;;;;;;;;5052565;28;20414;-63
2021/12/09 08:18:54;;;;;;;65.15;20.83;;;;;;;;;;5052459;28;20436;-63
2021/12/09 08:21:21;;;;;;;73.63;23.48;;;;;;;;;;5050238;28;20037;-63
2021/12/09 08:23:47;;;;;;;27.55;12.88;;;;;;;;;;5052533;28;20031;-64
2021/12/09 08:26:13;;;;;;;47.08;17.13;;;;;;;;;;5051376;28;20021;-59
2021/12/09 08:28:38;;;;;;;58.38;25.63;;;;;;;;;;5054463;28;20028;-62
2021/12/09 08:31:04;;;;;;;74.35;22.20;;;;;;;;;;5049498;28;20029;-64
2021/12/09 08:33:29;;;;;;;80.50;24.17;;;;;;;;;;5054129;28;20063;-63
2021/12/09 08:35:55;;;;;;;84.15;26.08;;;;;;;;;;5054165;28;20029;-64
2021/12/09 08:38:23;;;;;;;49.67;14.73;;;;;;;;;;5049688;28;20017;-57
2021/12/09 08:40:50;;;;;;;66.15;22.25;;;;;;;;;;5052553;28;20099;-60
2021/12/09 08:43:16;;;;;;;68.40;21.33;;;;;;;;;;5048948;28;20029;-57
2021/12/09 08:45:42;;;;;;;44.97;15.80;;;;;;;;;;5053468;28;20029;-54
2021/12/09 08:48:08;;;;;;;51.13;17.30;;;;;;;;;;5049156;28;20028;-58
2021/12/09 08:50:35;;;;;;;82.32;24.73;;;;;;;;;;5054481;28;20162;-63
2021/12/09 08:53:05;;;;;;;50.95;15.40;;;;;;;;;;5049159;28;20547;-61
2021/12/09 08:55:31;;;;;;;;;;;;;;;;;;5050188;28;20024;-59
2021/12/09 08:57:56;;;;;;;41.90;17.75;;;;;;;;;;5049860;28;20016;-62
2021/12/09 09:00:23;;;;;;;81.03;22.65;;;;;;;;;;5048864;28;20071;-57
2021/12/09 09:02:50;;;;;;;32.25;13.90;;;;;;;;;;5052248;28;20423;-56
2021/12/09 09:05:16;;;;;;;66.72;23.98;;;;;;;;;;5052741;28;20475;-64
2021/12/09 09:07:43;;;;;;;90.88;24.40;;;;;;;;;;5048970;28;20029;-63
2021/12/09 09:10:11;;;;;;;57.28;21.48;;;;;;;;;;5048833;28;20442;-63
2021/12/09 09:12:37;;;;;;;51.95;19.75;;;;;;;;;;5047846;28;20036;-60
2021/12/09 09:15:07;;;;;;;51.53;22.65;;;;;;;;;;5052865;28;20031;-64
2021/12/09 09:17:32;;;;;;;66.97;19.10;;;;;;;;;;5051504;28;21392;-60
2021/12/09 09:19:58;;;;;;;82.35;22.83;;;;;;;;;;5051534;28;20475;-65
2021/12/09 09:22:23;;;;;;;86.18;24.33;;;;;;;;;;5051109;28;20021;-61
2021/12/09 09:24:49;;;;;;;72.32;25.05;;;;;;;;;;5051493;28;20425;-61
2021/12/09 09:27:14;;;;;;;51.70;18.70;;;;;;;;;;5050468;28;20404;-57
2021/12/09 09:29:41;;;;;;;53.35;15.57;;;;;;;;;;5054201;28;20103;-59
2021/12/09 09:32:10;;;;;;;48.10;17.70;;;;;;;;;;5050343;28;20037;-62
2021/12/09 09:34:36;;;;;;;93.57;26.88;;;;;;;;;;5054559;28;20031;-62
2021/12/09 09:37:04;;;;;;;67.18;22.10;;;;;;;;;;5064771;28;20036;-56
2021/12/09 09:39:31;;;;;;;67.88;26.65;;;;;;;;;;5056747;28;20029;-64
2021/12/09 09:42:18;;;;;;;50.90;16.23;;;;;;;;;;5056590;28;20077;-60
2021/12/09 09:44:54;;;;;;;93.75;28.10;;;;;;;;;;5045659;28;20033;-57
2021/12/09 09:47:26;;;;;;;90.30;26.27;;;;;;;;;;5050723;28;20029;-54
2021/12/09 09:49:55;;;;;;;115.93;31.60;;;;;;;;;;5052014;28;20025;-59
2021/12/09 09:52:20;;;;;;;71.38;19.95;;;;;;;;;;5051814;28;20029;-62
2021/12/09 09:54:47;;;;;;;76.75;23.92;;;;;;;;;;5053736;28;20083;-61
2021/12/09 09:57:12;;;;;;;93.65;26.02;;;;;;;;;;5052378;28;20041;-62
2021/12/09 09:59:40;;;;;;;96.40;27.98;;;;;;;;;;5051711;28;20032;-64
2021/12/09 10:02:08;;;;;;;84.07;25.08;;;;;;;;;;5052083;28;20028;-61
2021/12/09 10:04:44;;;;;;;68.72;21.63;;;;;;;;;;5052239;28;20025;-64
2021/12/09 10:07:14;;;;;;;77.28;23.73;;;;;;;;;;5051970;28;20025;-59
2021/12/09 10:09:40;;;;;;;76.65;22.85;;;;;;;;;;5052781;28;20090;-59
2021/12/09 10:12:07;;;;;;;68.53;20.95;;;;;;;;;;5038435;28;20181;-61
2021/12/09 10:14:35;;;;;;;78.13;23.52;;;;;;;;;;5052080;28;20054;-60
2021/12/09 10:17:07;;;;;;;63.67;21.92;;;;;;;;;;5051565;28;20116;-60
2021/12/09 10:19:38;;;;;;;70.20;19.73;;;;;;;;;;5051678;28;20108;-63
2021/12/09 10:22:24;;;;;;;79.88;22.20;;;;;;;;;;5051953;28;20029;-62
2021/12/09 10:24:53;;;;;;;92.88;25.90;;;;;;;;;;5051385;28;20017;-59
2021/12/09 10:27:29;;;;;;;94.05;28.83;;;;;;;;;;5051544;28;20480;-62
2021/12/09 10:30:13;;;;;;;69.28;28.42;;;;;;;;;;5041805;28;20032;-62
2021/12/09 10:32:40;;;;;;;81.68;23.08;;;;;;;;;;5058950;28;20060;-62
2021/12/09 10:35:10;;;;;;;87.93;26.48;;;;;;;;;;5043754;28;20392;-63
2021/12/09 10:37:38;;;;;;;61.08;18.58;;;;;;;;;;5060654;28;20029;-64
2021/12/09 10:40:26;;;;;;;65.97;20.42;;;;;;;;;;5060006;28;20045;-61
2021/12/09 10:43:03;;;;;;;78.93;23.27;;;;;;;;;;5062483;28;20112;-62
2021/12/09 10:45:32;;;;;;;93.18;27.83;;;;;;;;;;5050301;28;20032;-61
2021/12/09 10:48:11;;;;;;;74.90;24.90;;;;;;;;;;5050460;28;20495;-58
2021/12/09 10:50:57;;;;;;;73.03;22.67;;;;;;;;;;5053511;28;20025;-59
2021/12/09 10:56:01;;;;;;;51.78;17.92;;;;;;;;;;5055217;28;20060;-58
2021/12/09 10:58:31;;;;;;;62.65;20.98;;;;;;;;;;5052614;28;20025;-65
2021/12/09 11:01:00;;;;;;;56.63;20.47;;;;;;;;;;5055968;28;20115;-63
2021/12/09 11:03:32;;;;;;;36.97;16.98;;;;;;;;;;5055215;28;20332;-59
2021/12/09 11:06:03;;;;;;;35.67;15.40;;;;;;;;;;5054983;28;20025;-63
2021/12/09 11:08:33;;;;;;;63.20;21.20;;;;;;;;;;5054399;28;20104;-62
2021/12/09 11:11:04;;;;;;;46.75;16.60;;;;;;;;;;5054821;28;20108;-58
2021/12/09 11:13:44;;;;;;;51.72;18.00;;;;;;;;;;5054760;28;20025;-62
2021/12/09 11:16:11;;;;;;;69.78;22.88;;;;;;;;;;5054703;28;20021;-66
2021/12/09 11:18:45;;;;;;;49.97;16.63;;;;;;;;;;5054675;28;20065;-61
2021/12/09 11:21:22;;;;;;;61.88;21.58;;;;;;;;;;5053845;28;20029;-58
2021/12/09 11:24:00;;;;;;;52.75;19.15;;;;;;;;;;5054654;28;20022;-63
2021/12/09 11:26:57;;;;;;;36.83;14.70;;;;;;;;;;5054470;28;20028;-64
2021/12/09 11:29:44;;;;;;;37.45;14.38;;;;;;;;;;5054132;28;20021;-66
2021/12/09 11:35:10;;;;;;;36.00;14.63;;;;;;;;;;5054473;28;20020;-65
2021/12/09 11:37:41;;;;;;;46.63;19.00;;;;;;;;;;5054109;28;20143;-66
2021/12/09 11:40:14;;;;;;;56.72;21.00;;;;;;;;;;5053833;28;20059;-64
2021/12/09 11:42:48;;;;;;;50.63;18.52;;;;;;;;;;5053907;28;20021;-65
2021/12/09 11:45:16;;;;;;;49.67;18.83;;;;;;;;;;5053467;28;20048;-64
2021/12/09 11:47:44;;;;;;;37.38;16.25;;;;;;;;;;5054212;28;20032;-66
2021/12/09 11:50:13;;;;;;;29.92;14.35;;;;;;;;;;5052502;28;20444;-65
2021/12/09 11:52:42;;;;;;;49.08;18.60;;;;;;;;;;5053864;28;20025;-65
2021/12/09 11:55:09;;;;;;;62.38;21.02;;;;;;;;;;5053697;28;20033;-66
2021/12/09 12:11:56;;;;;;;41.38;17.00;;;;;;;;;;5041139;28;20572;-64
2021/12/09 12:14:38;;;;;;;48.63;17.63;;;;;;;;;;5056374;28;20482;-63
2021/12/09 12:17:43;;;;;;;58.05;21.83;;;;;;;;;;5053416;28;20487;-63
2021/12/09 12:26:06;;;;;;;66.80;25.40;;;;;;;;;;5053330;28;20176;-64
2021/12/09 12:32:05;;;;;;;51.33;18.58;;;;;;;;;;5053041;28;20467;-62
2021/12/09 12:38:17;;;;;;;44.33;19.75;;;;;;;;;;5050016;28;20059;-65
2021/12/09 12:40:52;;;;;;;61.67;23.08;;;;;;;;;;5053254;28;20047;-65
2021/12/09 12:43:24;;;;;;;96.90;29.85;;;;;;;;;;5053133;28;20025;-66
2021/12/09 12:51:28;;;;;;;51.40;18.73;;;;;;;;;;5039939;28;20028;-64
2021/12/09 12:54:01;;;;;;;49.67;21.17;;;;;;;;;;5052923;28;20070;-64
2021/12/09 12:56:31;;;;;;;53.17;20.08;;;;;;;;;;5051956;28;20480;-65
2021/12/09 12:59:07;;;;;;;44.88;20.38;;;;;;;;;;5052622;28;20104;-66
2021/12/09 13:01:35;;;;;;;67.32;24.40;;;;;;;;;;5052671;28;20102;-65
2021/12/09 13:04:25;;;;;;;47.72;20.60;;;;;;;;;;5052349;28;20384;-64
2021/12/09 13:06:57;;;;;;;73.57;26.75;;;;;;;;;;5051082;28;20108;-64
2021/12/09 13:09:37;;;;;;;60.80;20.85;;;;;;;;;;5052159;28;20095;-64
2021/12/09 13:12:07;;;;;;;67.43;22.97;;;;;;;;;;5052492;28;20025;-65
2021/12/09 13:14:37;;;;;;;54.53;21.65;;;;;;;;;;5052744;28;20029;-64
2021/12/09 13:17:13;;;;;;;56.83;19.60;;;;;;;;;;5052458;28;20408;-66
2021/12/09 13:20:16;;;;;;;72.30;25.23;;;;;;;;;;5052231;28;20509;-66
2021/12/09 13:22:40;;;;;;;48.63;19.95;;;;;;;;;;5045324;28;20083;-63
2021/12/09 13:25:25;;;;;;;55.10;18.63;;;;;;;;;;5052259;28;20112;-65
2021/12/09 13:47:15;;;;;;;72.53;23.10;;;;;;;;;;5029964;28;20041;-65
2021/12/09 13:49:58;;;;;;;40.33;14.02;;;;;;;;;;5029705;28;20026;-64
2021/12/09 13:55:24;;;;;;;57.28;17.92;;;;;;;;;;5009448;28;20133;-65
2021/12/09 13:57:57;;;;;;;51.05;19.42;;;;;;;;;;4997554;28;20033;-65
2021/12/09 14:00:25;;;;;;;44.28;20.17;;;;;;;;;;5009699;28;20046;-65
2021/12/09 14:03:00;;;;;;;39.67;19.73;;;;;;;;;;4993399;28;20026;-63
2021/12/09 14:05:38;;;;;;;63.95;23.67;;;;;;;;;;5009609;28;20067;-61
2021/12/09 14:08:07;;;;;;;51.92;19.40;;;;;;;;;;4990216;28;20385;-63
2021/12/09 14:10:36;;;;;;;57.75;21.38;;;;;;;;;;5010811;28;20030;-65
2021/12/09 14:13:08;;;;;;;50.42;20.20;;;;;;;;;;5000194;28;20043;-66
2021/12/09 14:15:44;;;;;;;60.70;20.08;;;;;;;;;;4993384;28;20034;-65
2021/12/09 14:18:18;;;;;;;63.83;21.80;;;;;;;;;;4991122;28;20030;-66
2021/12/09 14:20:44;;;;;;;50.00;18.77;;;;;;;;;;4976865;28;20501;-65
2021/12/09 14:23:11;;;;;;;79.50;23.88;;;;;;;;;;4988799;28;20122;-68
2021/12/09 14:25:38;;;;;;;70.82;23.98;;;;;;;;;;4994331;28;20057;-66
2021/12/09 14:28:18;;;;;;;53.72;20.65;;;;;;;;;;4994031;28;20516;-66
2021/12/09 14:30:47;;;;;;;67.18;24.63;;;;;;;;;;4994575;28;20542;-67
2021/12/09 14:33:14;;;;;;;56.45;19.55;;;;;;;;;;5042305;28;20057;-61
2021/12/09 14:35:47;;;;;;;68.13;23.10;;;;;;;;;;5053736;28;20155;-64
2021/12/09 14:38:18;;;;;;;66.40;25.00;;;;;;;;;;5055252;28;20543;-61
2021/12/09 14:40:55;;;;;;;57.63;21.00;;;;;;;;;;5055050;28;20080;-61
2021/12/09 14:43:23;;;;;;;37.80;13.48;;;;;;;;;;5055407;28;20039;-56
2021/12/09 14:45:57;;;;;;;48.50;19.33;;;;;;;;;;5054376;28;20020;-58
2021/12/09 14:48:53;;;;;;;68.93;24.02;;;;;;;;;;5054530;28;20039;-57
2021/12/09 14:51:30;;;;;;;49.53;18.75;;;;;;;;;;5042019;28;20094;-55
2021/12/09 14:54:02;;;;;;;65.00;21.23;;;;;;;;;;5053979;28;20480;-57
2021/12/09 14:56:29;;;;;;;71.63;24.13;;;;;;;;;;5053985;28;20029;-57
2021/12/09 14:59:29;;;;;;;57.30;21.42;;;;;;;;;;5055248;28;20028;-59
2021/12/09 15:02:13;;;;;;;44.95;19.63;;;;;;;;;;5049456;28;20109;-59
2021/12/09 15:04:44;;;;;;;66.35;22.13;;;;;;;;;;5055022;28;20036;-58
2021/12/09 15:07:50;;;;;;;83.13;27.80;;;;;;;;;;5055677;28;20468;-58
2021/12/09 15:10:19;;;;;;;44.55;17.90;;;;;;;;;;5054346;28;20043;-55
2021/12/09 15:12:46;;;;;;;60.40;21.73;;;;;;;;;;5053555;28;20024;-51
2021/12/09 15:15:30;;;;;;;82.47;28.88;;;;;;;;;;5054292;28;20021;-53
2021/12/09 15:17:58;;;;;;;71.43;22.63;;;;;;;;;;5054382;28;20029;-61
2021/12/09 15:20:39;;;;;;;75.38;25.35;;;;;;;;;;5053639;28;20021;-60
2021/12/09 15:23:11;;;;;;;81.32;28.58;;;;;;;;;;5054739;28;20025;-64
2021/12/09 15:25:41;;;;;;;48.17;19.05;;;;;;;;;;5041665;28;20017;-63
2021/12/09 15:28:13;;;;;;;93.45;28.75;;;;;;;;;;5054060;28;20075;-64
2021/12/09 15:30:59;;;;;;;84.07;29.63;;;;;;;;;;5053986;28;20025;-63